sensor_id;sensor_type;location;lat;lon;timestamp;pressure;altitude;pressure_sealevel;temperature;humidity
40245;BME280;25963;42.694;23.600;2022-10-16T00:01:22;95868.88;;;7.70;100.00
40245;BME280;25963;42.694;23.600;2022-10-16T00:03:48;95864.09;;;7.73;100.00
40245;BME280;25963;42.694;23.600;2022-10-16T00:06:15;95864.44;;;7.85;100.00
40245;BME280;25963;42.694;23.600;2022-10-16T00:08:42;95859.81;;;7.87;100.00
40245;BME280;25963;42.694;23.600;2022-10-16T00:11:13;95864.16;;;7.95;100.00
40245;BME280;25963;42.694;23.600;2022-10-16T00:13:41;95868.59;;;7.94;100.00
40245;BME280;25963;42.694;23.600;2022-10-16T00:16:07;95873.84;;;7.80;100.00
40245;BME280;25963;42.694;23.600;2022-10-16T00:18:33;95868.88;;;7.85;100.00
40245;BME280;25963;42.694;23.600;2022-10-16T00:21:19;95872.69;;;7.67;100.00
40245;BME280;25963;42.694;23.600;2022-10-16T00:23:45;95878.22;;;7.72;100.00
40245;BME280;25963;42.694;23.600;2022-10-16T00:26:15;95880.19;;;7.70;100.00
40245;BME280;25963;42.694;23.600;2022-10-16T00:28:41;95881.00;;;7.56;100.00
40245;BME280;25963;42.694;23.600;2022-10-16T00:31:09;95885.16;;;7.50;100.00
40245;BME280;25963;42.694;23.600;2022-10-16T00:33:36;95891.25;;;7.51;100.00
40245;BME280;25963;42.694;23.600;2022-10-16T00:36:03;95889.06;;;7.40;100.00
40245;BME280;25963;42.694;23.600;2022-10-16T00:38:28;95894.94;;;7.27;100.00
40245;BME280;25963;42.694;23.600;2022-10-16T00:40:54;95893.84;;;7.21;100.00
40245;BME280;25963;42.694;23.600;2022-10-16T00:46:23;95880.38;;;7.24;100.00
40245;BME280;25963;42.694;23.600;2022-10-16T01:09:44;95857.88;;;6.69;100.00
40245;BME280;25963;42.694;23.600;2022-10-16T01:16:22;95900.94;;;6.75;100.00
40245;BME280;25963;42.694;23.600;2022-10-16T01:21:51;95902.19;;;6.79;100.00
40245;BME280;25963;42.694;23.600;2022-10-16T01:24:41;95897.59;;;6.81;100.00
40245;BME280;25963;42.694;23.600;2022-10-16T01:27:22;95890.63;;;6.73;100.00
40245;BME280;25963;42.694;23.600;2022-10-16T01:30:21;95895.69;;;6.75;100.00
40245;BME280;25963;42.694;23.600;2022-10-16T01:32:46;95890.38;;;6.60;100.00
40245;BME280;25963;42.694;23.600;2022-10-16T01:35:37;95885.88;;;6.46;100.00
40245;BME280;25963;42.694;23.600;2022-10-16T01:38:12;95894.16;;;6.57;100.00
40245;BME280;25963;42.694;23.600;2022-10-16T01:40:44;95892.66;;;6.63;100.00
40245;BME280;25963;42.694;23.600;2022-10-16T01:43:15;95893.47;;;6.63;100.00
40245;BME280;25963;42.694;23.600;2022-10-16T01:45:44;95893.00;;;6.60;100.00
40245;BME280;25963;42.694;23.600;2022-10-16T01:48:13;95906.56;;;6.63;100.00
40245;BME280;25963;42.694;23.600;2022-10-16T01:50:42;95901.81;;;6.67;100.00
40245;BME280;25963;42.694;23.600;2022-10-16T01:53:11;95894.06;;;6.51;100.00
40245;BME280;25963;42.694;23.600;2022-10-16T01:55:41;95904.75;;;6.64;100.00
40245;BME280;25963;42.694;23.600;2022-10-16T01:58:11;95903.97;;;6.40;100.00
40245;BME280;25963;42.694;23.600;2022-10-16T02:00:39;95905.34;;;6.28;100.00
40245;BME280;25963;42.694;23.600;2022-10-16T02:03:07;95906.00;;;6.22;100.00
40245;BME280;25963;42.694;23.600;2022-10-16T02:05:38;95906.28;;;6.35;100.00
40245;BME280;25963;42.694;23.600;2022-10-16T02:08:05;95915.84;;;6.51;100.00
40245;BME280;25963;42.694;23.600;2022-10-16T02:10:31;95914.78;;;6.37;100.00
40245;BME280;25963;42.694;23.600;2022-10-16T02:13:02;95922.84;;;6.28;100.00
40245;BME280;25963;42.694;23.600;2022-10-16T02:15:28;95919.75;;;6.24;100.00
40245;BME280;25963;42.694;23.600;2022-10-16T02:17:54;95919.16;;;6.14;100.00
40245;BME280;25963;42.694;23.600;2022-10-16T02:20:24;95910.66;;;6.12;100.00
40245;BME280;25963;42.694;23.600;2022-10-16T02:22:52;95921.13;;;6.12;100.00
40245;BME280;25963;42.694;23.600;2022-10-16T02:25:26;95916.69;;;6.12;100.00
40245;BME280;25963;42.694;23.600;2022-10-16T02:28:00;95917.69;;;6.43;100.00
40245;BME280;25963;42.694;23.600;2022-10-16T02:30:32;95919.84;;;6.39;100.00
40245;BME280;25963;42.694;23.600;2022-10-16T02:33:01;95926.53;;;6.42;100.00
40245;BME280;25963;42.694;23.600;2022-10-16T02:35:28;95931.78;;;6.42;100.00
40245;BME280;25963;42.694;23.600;2022-10-16T02:37:55;95926.94;;;6.61;100.00
40245;BME280;25963;42.694;23.600;2022-10-16T02:40:21;95931.97;;;6.63;100.00
40245;BME280;25963;42.694;23.600;2022-10-16T02:42:51;95927.75;;;6.62;100.00
40245;BME280;25963;42.694;23.600;2022-10-16T02:45:17;95935.56;;;6.70;100.00
40245;BME280;25963;42.694;23.600;2022-10-16T02:47:43;95933.44;;;6.66;100.00
40245;BME280;25963;42.694;23.600;2022-10-16T02:50:08;95940.53;;;6.57;100.00
40245;BME280;25963;42.694;23.600;2022-10-16T02:52:34;95934.38;;;6.50;100.00
40245;BME280;25963;42.694;23.600;2022-10-16T02:55:00;95930.78;;;6.43;100.00
40245;BME280;25963;42.694;23.600;2022-10-16T02:57:25;95943.00;;;6.58;100.00
40245;BME280;25963;42.694;23.600;2022-10-16T02:59:51;95939.19;;;6.61;100.00
40245;BME280;25963;42.694;23.600;2022-10-16T03:02:16;95943.34;;;6.55;100.00
40245;BME280;25963;42.694;23.600;2022-10-16T03:04:42;95942.00;;;6.59;100.00
40245;BME280;25963;42.694;23.600;2022-10-16T03:07:07;95937.22;;;6.63;100.00
40245;BME280;25963;42.694;23.600;2022-10-16T03:09:33;95943.00;;;6.58;100.00
40245;BME280;25963;42.694;23.600;2022-10-16T03:11:59;95943.34;;;6.55;100.00
40245;BME280;25963;42.694;23.600;2022-10-16T03:14:24;95948.09;;;6.52;100.00
40245;BME280;25963;42.694;23.600;2022-10-16T03:16:49;95952.06;;;6.48;100.00
40245;BME280;25963;42.694;23.600;2022-10-16T03:19:18;95958.25;;;6.24;100.00
40245;BME280;25963;42.694;23.600;2022-10-16T03:21:44;95951.81;;;6.34;100.00
40245;BME280;25963;42.694;23.600;2022-10-16T03:24:09;95961.00;;;6.22;100.00
40245;BME280;25963;42.694;23.600;2022-10-16T03:26:35;95956.44;;;6.24;100.00
40245;BME280;25963;42.694;23.600;2022-10-16T03:29:01;95956.47;;;6.16;100.00
40245;BME280;25963;42.694;23.600;2022-10-16T03:31:31;95955.72;;;5.91;100.00
40245;BME280;25963;42.694;23.600;2022-10-16T03:33:56;95957.88;;;5.79;100.00
40245;BME280;25963;42.694;23.600;2022-10-16T03:36:22;95956.53;;;5.91;100.00
40245;BME280;25963;42.694;23.600;2022-10-16T03:38:47;95959.97;;;6.00;100.00
40245;BME280;25963;42.694;23.600;2022-10-16T03:41:13;95956.97;;;6.11;100.00
40245;BME280;25963;42.694;23.600;2022-10-16T03:43:38;95962.03;;;6.13;100.00
40245;BME280;25963;42.694;23.600;2022-10-16T03:46:04;95956.22;;;5.86;100.00
40245;BME280;25963;42.694;23.600;2022-10-16T03:48:29;95954.25;;;5.97;100.00
40245;BME280;25963;42.694;23.600;2022-10-16T03:50:55;95959.75;;;6.10;100.00
40245;BME280;25963;42.694;23.600;2022-10-16T03:53:20;95951.91;;;6.10;100.00
40245;BME280;25963;42.694;23.600;2022-10-16T03:55:46;95947.34;;;6.04;100.00
40245;BME280;25963;42.694;23.600;2022-10-16T03:58:11;95948.34;;;6.03;100.00
40245;BME280;25963;42.694;23.600;2022-10-16T04:00:44;95955.41;;;5.94;100.00
40245;BME280;25963;42.694;23.600;2022-10-16T04:03:10;95961.22;;;5.57;100.00
40245;BME280;25963;42.694;23.600;2022-10-16T04:05:36;95961.50;;;5.62;100.00
40245;BME280;25963;42.694;23.600;2022-10-16T04:08:02;95963.31;;;5.61;100.00
40245;BME280;25963;42.694;23.600;2022-10-16T04:10:28;95958.28;;;5.19;100.00
40245;BME280;25963;42.694;23.600;2022-10-16T04:12:53;95958.28;;;5.35;100.00
40245;BME280;25963;42.694;23.600;2022-10-16T04:15:23;95963.03;;;5.40;100.00
40245;BME280;25963;42.694;23.600;2022-10-16T04:17:48;95962.84;;;5.49;100.00
40245;BME280;25963;42.694;23.600;2022-10-16T04:20:14;95964.81;;;5.47;100.00
40245;BME280;25963;42.694;23.600;2022-10-16T04:22:39;95964.50;;;5.42;100.00
40245;BME280;25963;42.694;23.600;2022-10-16T04:25:05;95963.97;;;5.47;100.00
40245;BME280;25963;42.694;23.600;2022-10-16T04:27:30;95967.78;;;5.36;100.00
40245;BME280;25963;42.694;23.600;2022-10-16T04:29:58;95960.56;;;5.38;100.00
40245;BME280;25963;42.694;23.600;2022-10-16T04:32:24;95968.41;;;5.46;100.00
40245;BME280;25963;42.694;23.600;2022-10-16T04:34:49;95964.16;;;5.37;100.00
40245;BME280;25963;42.694;23.600;2022-10-16T04:37:15;95965.47;;;5.41;100.00
40245;BME280;25963;42.694;23.600;2022-10-16T04:39:43;95974.44;;;5.47;100.00
40245;BME280;25963;42.694;23.600;2022-10-16T04:42:08;95974.13;;;5.50;100.00
40245;BME280;25963;42.694;23.600;2022-10-16T04:44:34;95991.31;;;5.44;100.00
40245;BME280;25963;42.694;23.600;2022-10-16T04:47:00;95981.81;;;5.52;100.00
40245;BME280;25963;42.694;23.600;2022-10-16T04:49:25;95984.25;;;5.53;100.00
40245;BME280;25963;42.694;23.600;2022-10-16T04:51:51;95990.00;;;5.40;100.00
40245;BME280;25963;42.694;23.600;2022-10-16T04:54:16;95998.50;;;5.42;100.00
40245;BME280;25963;42.694;23.600;2022-10-16T04:56:41;95996.56;;;5.44;100.00
40245;BME280;25963;42.694;23.600;2022-10-16T04:59:14;96003.56;;;5.52;100.00
40245;BME280;25963;42.694;23.600;2022-10-16T05:01:40;96001.59;;;5.54;100.00
40245;BME280;25963;42.694;23.600;2022-10-16T05:04:05;95997.34;;;5.61;100.00
40245;BME280;25963;42.694;23.600;2022-10-16T05:06:31;95997.66;;;5.66;100.00
40245;BME280;25963;42.694;23.600;2022-10-16T05:08:56;95995.88;;;5.67;100.00
40245;BME280;25963;42.694;23.600;2022-10-16T05:11:22;96000.75;;;5.70;100.00
40245;BME280;25963;42.694;23.600;2022-10-16T05:13:47;95996.50;;;5.93;100.00
40245;BME280;25963;42.694;23.600;2022-10-16T05:16:13;96001.06;;;6.39;100.00
40245;BME280;25963;42.694;23.600;2022-10-16T05:18:38;96013.69;;;7.06;100.00
40245;BME280;25963;42.694;23.600;2022-10-16T05:21:04;96011.94;;;7.59;100.00
40245;BME280;25963;42.694;23.600;2022-10-16T05:23:29;96015.38;;;8.27;100.00
40245;BME280;25963;42.694;23.600;2022-10-16T05:25:56;96009.84;;;8.88;100.00
40245;BME280;25963;42.694;23.600;2022-10-16T05:28:24;96018.41;;;9.33;97.69
40245;BME280;25963;42.694;23.600;2022-10-16T05:30:50;96015.16;;;9.52;94.99
40245;BME280;25963;42.694;23.600;2022-10-16T05:33:15;96012.75;;;10.14;91.97
40245;BME280;25963;42.694;23.600;2022-10-16T05:35:41;96012.06;;;10.68;87.98
40245;BME280;25963;42.694;23.600;2022-10-16T05:38:07;96018.91;;;11.17;85.58
40245;BME280;25963;42.694;23.600;2022-10-16T05:40:32;96017.13;;;11.31;84.28
40245;BME280;25963;42.694;23.600;2022-10-16T05:42:57;96019.16;;;11.35;84.16
40245;BME280;25963;42.694;23.600;2022-10-16T05:45:23;96025.25;;;11.36;85.13
40245;BME280;25963;42.694;23.600;2022-10-16T05:47:48;96011.44;;;11.60;85.17
40245;BME280;25963;42.694;23.600;2022-10-16T05:50:14;96016.75;;;11.80;83.42
40245;BME280;25963;42.694;23.600;2022-10-16T05:52:45;96027.16;;;11.95;83.58
40245;BME280;25963;42.694;23.600;2022-10-16T05:55:11;96028.78;;;11.90;83.04
40245;BME280;25963;42.694;23.600;2022-10-16T05:57:36;96029.97;;;11.80;83.82
40245;BME280;25963;42.694;23.600;2022-10-16T06:00:03;96031.22;;;11.91;86.52
40245;BME280;25963;42.694;23.600;2022-10-16T06:02:28;96044.22;;;11.86;84.04
40245;BME280;25963;42.694;23.600;2022-10-16T06:04:54;96038.94;;;11.93;86.20
40245;BME280;25963;42.694;23.600;2022-10-16T06:07:20;96035.47;;;11.79;84.41
40245;BME280;25963;42.694;23.600;2022-10-16T06:09:49;96038.34;;;11.91;88.16
40245;BME280;25963;42.694;23.600;2022-10-16T06:12:15;96041.75;;;12.11;85.49
40245;BME280;25963;42.694;23.600;2022-10-16T06:14:41;96040.34;;;12.02;88.54
40245;BME280;25963;42.694;23.600;2022-10-16T06:17:06;96042.78;;;11.90;85.67
40245;BME280;25963;42.694;23.600;2022-10-16T06:19:32;96045.84;;;11.87;89.33
40245;BME280;25963;42.694;23.600;2022-10-16T06:21:57;96052.78;;;11.95;87.51
40245;BME280;25963;42.694;23.600;2022-10-16T06:24:24;96058.63;;;11.77;87.71
40245;BME280;25963;42.694;23.600;2022-10-16T06:26:49;96021.81;;;11.75;88.12
40245;BME280;25963;42.694;23.600;2022-10-16T06:29:15;96057.03;;;12.09;90.86
40245;BME280;25963;42.694;23.600;2022-10-16T06:31:40;96066.81;;;11.88;86.24
40245;BME280;25963;42.694;23.600;2022-10-16T06:34:09;96066.34;;;11.52;88.59
40245;BME280;25963;42.694;23.600;2022-10-16T06:36:36;96066.97;;;11.67;87.95
40245;BME280;25963;42.694;23.600;2022-10-16T06:39:02;96061.91;;;11.79;90.83
40245;BME280;25963;42.694;23.600;2022-10-16T06:41:28;96074.06;;;11.60;90.11
40245;BME280;25963;42.694;23.600;2022-10-16T06:43:53;96077.91;;;11.51;90.97
40245;BME280;25963;42.694;23.600;2022-10-16T06:46:21;96076.91;;;11.65;93.70
40245;BME280;25963;42.694;23.600;2022-10-16T06:48:47;96081.63;;;11.70;94.23
40245;BME280;25963;42.694;23.600;2022-10-16T06:51:15;96085.06;;;11.70;91.29
40245;BME280;25963;42.694;23.600;2022-10-16T06:53:43;96077.31;;;11.75;91.14
40245;BME280;25963;42.694;23.600;2022-10-16T06:56:14;96081.81;;;11.75;93.34
40245;BME280;25963;42.694;23.600;2022-10-16T06:58:40;96083.06;;;11.99;93.48
40245;BME280;25963;42.694;23.600;2022-10-16T07:01:07;96091.00;;;12.19;88.06
40245;BME280;25963;42.694;23.600;2022-10-16T07:03:32;96087.97;;;12.15;90.87
40245;BME280;25963;42.694;23.600;2022-10-16T07:06:03;96092.03;;;12.11;92.66
40245;BME280;25963;42.694;23.600;2022-10-16T07:08:35;96091.03;;;12.12;91.12
40245;BME280;25963;42.694;23.600;2022-10-16T07:11:03;96096.09;;;12.07;92.14
40245;BME280;25963;42.694;23.600;2022-10-16T07:13:29;96091.19;;;12.17;90.87
40245;BME280;25963;42.694;23.600;2022-10-16T07:15:54;96095.47;;;12.45;100.00
40245;BME280;25963;42.694;23.600;2022-10-16T07:18:20;96096.88;;;12.54;94.79
40245;BME280;25963;42.694;23.600;2022-10-16T07:20:45;96097.66;;;12.68;88.98
40245;BME280;25963;42.694;23.600;2022-10-16T07:23:10;96105.91;;;12.98;92.43
40245;BME280;25963;42.694;23.600;2022-10-16T07:25:36;96097.13;;;13.04;88.34
40245;BME280;25963;42.694;23.600;2022-10-16T07:28:01;96095.13;;;12.99;86.47
40245;BME280;25963;42.694;23.600;2022-10-16T07:30:27;96104.41;;;13.15;87.47
40245;BME280;25963;42.694;23.600;2022-10-16T07:32:52;96100.19;;;13.01;86.59
40245;BME280;25963;42.694;23.600;2022-10-16T07:35:18;96094.78;;;12.76;87.49
40245;BME280;25963;42.694;23.600;2022-10-16T07:37:46;96101.03;;;12.95;91.99
40245;BME280;25963;42.694;23.600;2022-10-16T07:40:12;96103.59;;;13.21;91.09
40245;BME280;25963;42.694;23.600;2022-10-16T07:42:38;96095.81;;;13.33;86.46
40245;BME280;25963;42.694;23.600;2022-10-16T07:45:04;96097.94;;;13.11;86.18
40245;BME280;25963;42.694;23.600;2022-10-16T07:47:29;96097.38;;;12.96;84.95
40245;BME280;25963;42.694;23.600;2022-10-16T07:49:55;96109.59;;;13.55;85.91
40245;BME280;25963;42.694;23.600;2022-10-16T07:52:20;96100.94;;;13.66;84.40
40245;BME280;25963;42.694;23.600;2022-10-16T07:54:46;96099.41;;;13.84;82.96
40245;BME280;25963;42.694;23.600;2022-10-16T07:57:11;96098.03;;;14.06;78.56
40245;BME280;25963;42.694;23.600;2022-10-16T07:59:37;96093.06;;;14.35;85.07
40245;BME280;25963;42.694;23.600;2022-10-16T08:02:02;96094.19;;;14.27;75.38
40245;BME280;25963;42.694;23.600;2022-10-16T08:04:28;96095.81;;;14.47;77.87
40245;BME280;25963;42.694;23.600;2022-10-16T08:06:53;96087.03;;;14.71;78.25
40245;BME280;25963;42.694;23.600;2022-10-16T08:09:19;96104.91;;;15.01;75.44
40245;BME280;25963;42.694;23.600;2022-10-16T08:11:45;96097.72;;;15.01;74.27
40245;BME280;25963;42.694;23.600;2022-10-16T08:14:10;96100.31;;;15.26;75.44
40245;BME280;25963;42.694;23.600;2022-10-16T08:16:35;96097.16;;;15.48;73.22
40245;BME280;25963;42.694;23.600;2022-10-16T08:19:01;96098.97;;;15.66;70.94
40245;BME280;25963;42.694;23.600;2022-10-16T08:21:26;96102.63;;;15.71;70.78
40245;BME280;25963;42.694;23.600;2022-10-16T08:23:53;96095.97;;;15.92;70.74
40245;BME280;25963;42.694;23.600;2022-10-16T08:26:18;96092.03;;;15.95;69.62
40245;BME280;25963;42.694;23.600;2022-10-16T08:28:44;96086.03;;;16.11;71.13
40245;BME280;25963;42.694;23.600;2022-10-16T08:31:12;96087.53;;;16.07;67.27
40245;BME280;25963;42.694;23.600;2022-10-16T08:33:40;96076.56;;;16.27;68.19
40245;BME280;25963;42.694;23.600;2022-10-16T08:36:06;96073.28;;;15.90;67.36
40245;BME280;25963;42.694;23.600;2022-10-16T08:38:33;96084.06;;;16.30;66.32
40245;BME280;25963;42.694;23.600;2022-10-16T08:49:59;96088.47;;;16.13;64.18
40245;BME280;25963;42.694;23.600;2022-10-16T08:52:30;96086.38;;;16.15;67.17
40245;BME280;25963;42.694;23.600;2022-10-16T08:54:57;96082.94;;;16.50;65.54
40245;BME280;25963;42.694;23.600;2022-10-16T08:57:25;96082.13;;;16.61;65.90
40245;BME280;25963;42.694;23.600;2022-10-16T08:59:59;96087.06;;;17.04;62.85
40245;BME280;25963;42.694;23.600;2022-10-16T09:02:40;96073.91;;;16.86;62.93
40245;BME280;25963;42.694;23.600;2022-10-16T09:10:30;96084.13;;;17.58;59.36
40245;BME280;25963;42.694;23.600;2022-10-16T09:13:17;96073.38;;;17.13;59.33
40245;BME280;25963;42.694;23.600;2022-10-16T09:18:29;96086.94;;;17.51;56.89
40245;BME280;25963;42.694;23.600;2022-10-16T09:23:41;96080.47;;;17.47;60.31
40245;BME280;25963;42.694;23.600;2022-10-16T09:26:11;96072.66;;;17.86;63.13
40245;BME280;25963;42.694;23.600;2022-10-16T09:28:38;96076.88;;;17.99;56.83
40245;BME280;25963;42.694;23.600;2022-10-16T09:31:03;96070.19;;;18.13;54.67
40245;BME280;25963;42.694;23.600;2022-10-16T09:33:33;96063.59;;;18.21;56.54
40245;BME280;25963;42.694;23.600;2022-10-16T09:36:02;96062.25;;;18.01;53.76
40245;BME280;25963;42.694;23.600;2022-10-16T09:38:33;96062.81;;;17.75;56.47
40245;BME280;25963;42.694;23.600;2022-10-16T09:41:01;96059.72;;;17.66;54.97
40245;BME280;25963;42.694;23.600;2022-10-16T09:46:03;96058.75;;;18.01;56.39
40245;BME280;25963;42.694;23.600;2022-10-16T09:48:37;96055.03;;;18.19;54.97
40245;BME280;25963;42.694;23.600;2022-10-16T09:51:05;96056.66;;;18.37;54.45
40245;BME280;25963;42.694;23.600;2022-10-16T09:53:45;96057.53;;;17.92;49.89
40245;BME280;25963;42.694;23.600;2022-10-16T09:56:20;96047.13;;;18.07;52.93
40245;BME280;25963;42.694;23.600;2022-10-16T09:58:53;96042.72;;;18.35;53.13
40245;BME280;25963;42.694;23.600;2022-10-16T10:01:20;96045.16;;;18.02;51.41
40245;BME280;25963;42.694;23.600;2022-10-16T10:03:46;96035.34;;;18.42;55.45
40245;BME280;25963;42.694;23.600;2022-10-16T10:06:21;96045.41;;;18.35;49.45
40245;BME280;25963;42.694;23.600;2022-10-16T10:11:48;96029.88;;;18.70;48.79
40245;BME280;25963;42.694;23.600;2022-10-16T10:14:24;96035.16;;;18.48;49.33
40245;BME280;25963;42.694;23.600;2022-10-16T10:16:52;96024.13;;;18.62;51.50
40245;BME280;25963;42.694;23.600;2022-10-16T10:19:27;96020.72;;;18.66;47.30
40245;BME280;25963;42.694;23.600;2022-10-16T10:21:52;96014.25;;;18.79;47.26
40245;BME280;25963;42.694;23.600;2022-10-16T10:24:19;96016.59;;;18.76;47.28
40245;BME280;25963;42.694;23.600;2022-10-16T10:26:54;96010.56;;;19.07;48.65
40245;BME280;25963;42.694;23.600;2022-10-16T10:35:07;96013.66;;;18.99;47.37
40245;BME280;25963;42.694;23.600;2022-10-16T10:38:02;96008.22;;;18.72;47.63
40245;BME280;25963;42.694;23.600;2022-10-16T10:40:46;96003.47;;;19.45;48.38
40245;BME280;25963;42.694;23.600;2022-10-16T10:43:34;95998.34;;;19.66;47.42
40245;BME280;25963;42.694;23.600;2022-10-16T10:46:09;96005.94;;;19.52;44.46
40245;BME280;25963;42.694;23.600;2022-10-16T10:54:03;96001.59;;;19.19;44.60
40245;BME280;25963;42.694;23.600;2022-10-16T10:59:19;95993.06;;;19.49;49.07
40245;BME280;25963;42.694;23.600;2022-10-16T11:01:55;95987.03;;;18.82;44.86
40245;BME280;25963;42.694;23.600;2022-10-16T11:07:15;95987.28;;;19.30;43.74
40245;BME280;25963;42.694;23.600;2022-10-16T11:09:57;95986.75;;;19.60;42.30
40245;BME280;25963;42.694;23.600;2022-10-16T11:12:34;95979.47;;;19.55;43.00
40245;BME280;25963;42.694;23.600;2022-10-16T11:15:21;95965.75;;;19.74;49.42
40245;BME280;25963;42.694;23.600;2022-10-16T11:20:34;95972.00;;;20.22;43.34
40245;BME280;25963;42.694;23.600;2022-10-16T11:23:28;95958.63;;;20.27;46.10
40245;BME280;25963;42.694;23.600;2022-10-16T11:26:00;95962.09;;;20.22;41.40
40245;BME280;25963;42.694;23.600;2022-10-16T11:28:37;95964.63;;;20.44;41.82
40245;BME280;25963;42.694;23.600;2022-10-16T11:31:09;95957.31;;;20.29;41.32
40245;BME280;25963;42.694;23.600;2022-10-16T11:33:47;95954.00;;;20.60;42.95
40245;BME280;25963;42.694;23.600;2022-10-16T11:36:22;95954.16;;;20.38;37.25
40245;BME280;25963;42.694;23.600;2022-10-16T11:39:03;95950.66;;;20.37;36.63
40245;BME280;25963;42.694;23.600;2022-10-16T11:46:37;95954.31;;;20.21;35.29
40245;BME280;25963;42.694;23.600;2022-10-16T11:49:24;95946.31;;;19.89;33.80
40245;BME280;25963;42.694;23.600;2022-10-16T11:52:08;95945.34;;;20.00;36.15
40245;BME280;25963;42.694;23.600;2022-10-16T11:54:59;95957.28;;;20.24;37.12
40245;BME280;25963;42.694;23.600;2022-10-16T11:57:31;95955.28;;;20.04;36.19
40245;BME280;25963;42.694;23.600;2022-10-16T12:00:14;95956.53;;;19.92;36.24
40245;BME280;25963;42.694;23.600;2022-10-16T12:08:12;95961.50;;;20.15;30.24
40245;BME280;25963;42.694;23.600;2022-10-16T12:10:40;95958.25;;;20.13;29.80
40245;BME280;25963;42.694;23.600;2022-10-16T12:13:29;95960.34;;;20.48;31.99
40245;BME280;25963;42.694;23.600;2022-10-16T12:16:27;95953.78;;;20.24;35.27
40245;BME280;25963;42.694;23.600;2022-10-16T12:19:10;95955.13;;;19.84;35.61
40245;BME280;25963;42.694;23.600;2022-10-16T12:21:36;95959.81;;;19.99;33.65
40245;BME280;25963;42.694;23.600;2022-10-16T12:24:03;95960.69;;;20.15;31.84
40245;BME280;25963;42.694;23.600;2022-10-16T12:26:38;95958.53;;;20.12;29.97
40245;BME280;25963;42.694;23.600;2022-10-16T12:31:46;95956.47;;;20.24;30.00
40245;BME280;25963;42.694;23.600;2022-10-16T12:34:37;95963.44;;;20.25;30.66
40245;BME280;25963;42.694;23.600;2022-10-16T12:39:54;95959.50;;;20.43;29.85
40245;BME280;25963;42.694;23.600;2022-10-16T12:44:52;95969.25;;;20.12;31.60
40245;BME280;25963;42.694;23.600;2022-10-16T12:49:59;95981.56;;;20.08;31.33
40245;BME280;25963;42.694;23.600;2022-10-16T12:52:42;95977.81;;;20.09;32.97
40245;BME280;25963;42.694;23.600;2022-10-16T12:55:17;95981.72;;;20.33;31.40
40245;BME280;25963;42.694;23.600;2022-10-16T13:06:39;95985.06;;;19.76;38.22
40245;BME280;25963;42.694;23.600;2022-10-16T13:18:16;95995.81;;;19.86;36.81
40245;BME280;25963;42.694;23.600;2022-10-16T13:28:37;95987.84;;;19.91;37.88
40245;BME280;25963;42.694;23.600;2022-10-16T13:31:04;95989.38;;;19.82;35.60
40245;BME280;25963;42.694;23.600;2022-10-16T13:33:31;95991.31;;;19.59;36.58
40245;BME280;25963;42.694;23.600;2022-10-16T13:35:57;95995.47;;;19.50;37.17
40245;BME280;25963;42.694;23.600;2022-10-16T13:38:34;95995.25;;;19.52;36.59
40245;BME280;25963;42.694;23.600;2022-10-16T13:41:11;95998.66;;;19.47;36.91
40245;BME280;25963;42.694;23.600;2022-10-16T13:43:52;95996.25;;;19.19;35.86
40245;BME280;25963;42.694;23.600;2022-10-16T13:46:23;95993.78;;;19.39;37.70
40245;BME280;25963;42.694;23.600;2022-10-16T13:49:15;96000.50;;;19.42;37.68
40245;BME280;25963;42.694;23.600;2022-10-16T13:51:41;96001.31;;;19.42;37.01
40245;BME280;25963;42.694;23.600;2022-10-16T13:54:11;96004.88;;;19.53;37.90
40245;BME280;25963;42.694;23.600;2022-10-16T13:56:39;96001.31;;;19.42;37.02
40245;BME280;25963;42.694;23.600;2022-10-16T13:59:20;96007.91;;;19.34;37.37
40245;BME280;25963;42.694;23.600;2022-10-16T14:01:47;96009.06;;;19.16;36.39
40245;BME280;25963;42.694;23.600;2022-10-16T14:04:13;96009.88;;;18.95;36.76
40245;BME280;25963;42.694;23.600;2022-10-16T14:06:42;96009.66;;;18.97;37.56
40245;BME280;25963;42.694;23.600;2022-10-16T14:09:21;96012.88;;;18.77;37.59
40245;BME280;25963;42.694;23.600;2022-10-16T14:11:50;96006.66;;;18.54;36.25
40245;BME280;25963;42.694;23.600;2022-10-16T14:14:18;96022.50;;;18.78;37.67
40245;BME280;25963;42.694;23.600;2022-10-16T14:16:44;96016.53;;;18.54;37.47
40245;BME280;25963;42.694;23.600;2022-10-16T14:19:18;96019.38;;;18.47;37.61
40245;BME280;25963;42.694;23.600;2022-10-16T14:21:44;96028.69;;;18.44;38.21
40245;BME280;25963;42.694;23.600;2022-10-16T14:24:14;96025.16;;;18.39;38.07
40245;BME280;25963;42.694;23.600;2022-10-16T14:26:47;96030.44;;;18.34;38.32
40245;BME280;25963;42.694;23.600;2022-10-16T14:29:17;96021.97;;;18.42;38.11
40245;BME280;25963;42.694;23.600;2022-10-16T14:31:57;96029.06;;;18.31;37.57
40245;BME280;25963;42.694;23.600;2022-10-16T14:34:33;96032.69;;;18.08;38.77
40245;BME280;25963;42.694;23.600;2022-10-16T14:37:20;96020.00;;;17.98;38.78
40245;BME280;25963;42.694;23.600;2022-10-16T14:39:52;96029.88;;;17.98;38.94
40245;BME280;25963;42.694;23.600;2022-10-16T14:42:19;96031.31;;;17.89;38.37
40245;BME280;25963;42.694;23.600;2022-10-16T14:44:46;96025.09;;;17.83;38.15
40245;BME280;25963;42.694;23.600;2022-10-16T14:47:17;96039.38;;;17.77;38.31
40245;BME280;25963;42.694;23.600;2022-10-16T14:49:47;96041.03;;;17.78;38.72
40245;BME280;25963;42.694;23.600;2022-10-16T14:52:13;96035.81;;;17.71;39.47
40245;BME280;25963;42.694;23.600;2022-10-16T14:54:40;96040.09;;;17.72;39.32
40245;BME280;25963;42.694;23.600;2022-10-16T14:57:16;96044.47;;;17.50;39.43
40245;BME280;25963;42.694;23.600;2022-10-16T14:59:42;96045.50;;;17.61;39.85
40245;BME280;25963;42.694;23.600;2022-10-16T15:02:32;96036.09;;;17.58;39.40
40245;BME280;25963;42.694;23.600;2022-10-16T15:05:07;96035.03;;;17.42;40.39